Terminal Aerodrome Forecast
Issued by NWS

Home | Current Version | Previous Version | Text Only | Print | Product List | Glossary On
Versions: 1 2 3 4 5 6 7 8 9 10 11 12 13 14
000
FTUS42 KMLB 251700
TAFFPR
TAF
KFPR 251734Z 2518/2618 VRB04KT P6SM SKC
     FM252000 06008KT P6SM FEW150 SCT250
     FM252300 21003KT P6SM SCT100 BKN250
     FM260800 24005KT P6SM VCSH BKN030 OVC050
     FM261500 20015G22KT P6SM VCSH BKN030 OVC050=

USA.gov is the U.S. government's official web portal to all federal, state and local government web resources and services.